Terminal Aerodrome Forecast
Issued by NWS

Home | Current Version | Previous Version | Text Only | Print | Product List | Glossary On
Versions: 1 2 3 4 5 6 7 8 9 10 11 12 13 14 15 16 17 18 19 20 21 22 23 24 25 26
000
FTUS46 KSGX 171700
TAFSAN
TAF
KSAN 171720Z 1718/1824 30005KT P6SM FEW100
     FM171900 29010KT P6SM FEW100
     FM180200 VRB05KT P6SM FEW015
     FM180900 18005KT P6SM BKN012
     FM181700 25005KT P6SM FEW015
     FM181900 29009KT P6SM FEW018=

USA.gov is the U.S. government's official web portal to all federal, state and local government web resources and services.